Time;durP1;ratioP1;P1;durP2;ratioP2;P2;SDS_P1;SDS_P2;PMS_P1;PMS_P2;Temp;Humidity;BMP_temperature;BMP_pressure;BME280_temperature;BME280_humidity;BME280_pressure;Samples;Min_cycle;Max_cycle;Signal;HPM_P1;HPM_P2
2023/03/24 00:01:49;;;;;;;6.05;2.70;;;11.60;99.90;;;;;;6246876;23;20036;-85
2023/03/24 00:04:38;;;;;;;4.82;3.22;;;11.70;99.90;;;;;;6243338;23;20030;-85
2023/03/24 00:07:29;;;;;;;7.00;3.25;;;11.80;99.90;;;;;;6247039;23;20039;-86
2023/03/24 00:10:19;;;;;;;9.50;3.53;;;11.90;99.90;;;;;;6244481;23;20035;-85
2023/03/24 00:13:06;;;;;;;3.40;3.10;;;12.00;99.90;;;;;;6245878;23;20051;-85
2023/03/24 00:15:55;;;;;;;7.40;3.35;;;12.10;99.90;;;;;;6244485;23;20034;-86
2023/03/24 00:18:43;;;;;;;4.72;2.88;;;12.10;99.90;;;;;;6244884;23;20020;-86
2023/03/24 00:21:31;;;;;;;3.83;3.10;;;12.20;99.90;;;;;;6246241;23;20059;-85
2023/03/24 00:24:19;;;;;;;7.18;3.47;;;12.20;99.90;;;;;;6246404;23;20095;-86
2023/03/24 00:27:12;;;;;;;3.80;2.75;;;12.30;99.90;;;;;;6223592;23;20027;-86
2023/03/24 00:29:59;;;;;;;4.28;2.67;;;12.30;99.90;;;;;;6246620;23;20321;-86
2023/03/24 00:32:46;;;;;;;4.63;2.95;;;12.40;99.90;;;;;;6244904;23;20098;-87
2023/03/24 00:35:38;;;;;;;3.40;2.50;;;12.40;99.90;;;;;;6245767;23;20032;-84
2023/03/24 00:38:26;;;;;;;4.50;3.03;;;12.50;99.90;;;;;;6245018;23;20028;-86
2023/03/24 00:41:16;;;;;;;3.95;3.10;;;12.60;99.90;;;;;;6246222;23;20035;-86
2023/03/24 00:44:04;;;;;;;3.20;2.53;;;12.60;99.90;;;;;;6243970;23;20024;-86
2023/03/24 00:46:55;;;;;;;4.63;2.75;;;12.70;99.90;;;;;;6244981;23;20333;-87
2023/03/24 00:49:45;;;;;;;6.07;3.00;;;12.80;99.90;;;;;;6245843;23;20028;-86
2023/03/24 00:52:33;;;;;;;3.25;2.60;;;12.80;99.90;;;;;;6244771;23;20032;-87
2023/03/24 00:55:20;;;;;;;4.55;3.03;;;12.90;99.90;;;;;;6224599;23;20024;-89
2023/03/24 00:58:07;;;;;;;3.92;2.65;;;12.90;99.90;;;;;;6243951;23;20102;-85
2023/03/24 01:01:01;;;;;;;5.22;2.28;;;13.00;99.90;;;;;;6245227;23;20399;-85
2023/03/24 01:03:55;;;;;;;5.05;2.60;;;13.10;99.90;;;;;;6247208;23;20020;-84
2023/03/24 01:06:43;;;;;;;4.05;2.60;;;13.00;99.90;;;;;;6247590;23;20031;-86
2023/03/24 01:09:32;;;;;;;3.95;2.40;;;12.90;99.90;;;;;;6224717;23;20050;-85
2023/03/24 01:12:20;;;;;;;3.13;2.60;;;12.80;99.90;;;;;;6244794;23;20039;-85
2023/03/24 01:15:18;;;;;;;3.22;2.40;;;12.80;99.90;;;;;;6247099;23;20024;-85
2023/03/24 01:18:08;;;;;;;5.10;2.33;;;12.80;99.90;;;;;;6244021;23;20032;-85
2023/03/24 01:20:57;;;;;;;4.50;2.72;;;12.60;99.90;;;;;;6247434;23;20415;-86
2023/03/24 01:23:44;;;;;;;3.85;2.75;;;12.60;99.90;;;;;;6244010;23;20064;-85
2023/03/24 01:26:34;;;;;;;4.00;2.10;;;12.50;99.90;;;;;;6244597;23;20059;-85
2023/03/24 01:29:24;;;;;;;4.63;2.33;;;12.50;99.90;;;;;;6244870;23;20024;-83
2023/03/24 01:32:11;;;;;;;6.47;2.40;;;12.50;99.90;;;;;;6244093;23;20032;-86
2023/03/24 01:34:58;;;;;;;3.55;2.97;;;12.50;99.90;;;;;;6245145;23;20036;-87
2023/03/24 01:37:48;;;;;;;2.72;2.33;;;12.40;99.90;;;;;;6244455;23;20051;-84
2023/03/24 01:40:40;;;;;;;7.07;2.60;;;12.30;99.90;;;;;;6222789;23;20062;-87
2023/03/24 01:43:30;;;;;;;2.38;2.17;;;12.30;99.90;;;;;;6245532;23;20035;-85
2023/03/24 01:46:21;;;;;;;4.13;2.58;;;12.30;99.90;;;;;;6245689;23;20039;-85
2023/03/24 01:49:11;;;;;;;9.07;3.33;;;12.20;99.90;;;;;;6222227;23;20028;-86
2023/03/24 01:52:01;;;;;;;4.18;2.20;;;12.30;99.90;;;;;;6245125;23;20266;-86
2023/03/24 01:55:06;;;;;;;3.42;2.50;;;12.40;99.90;;;;;;6243674;23;20398;-85
2023/03/24 01:57:57;;;;;;;5.55;2.60;;;12.40;99.90;;;;;;6245200;23;20052;-85
2023/03/24 02:00:44;;;;;;;4.70;2.67;;;12.50;99.90;;;;;;6243414;23;20035;-86
2023/03/24 02:03:37;;;;;;;4.10;2.50;;;12.60;99.90;;;;;;6222587;23;20030;-85
2023/03/24 02:06:25;;;;;;;4.03;2.65;;;12.60;99.90;;;;;;6244284;23;20038;-85
2023/03/24 02:09:15;;;;;;;4.32;2.28;;;12.70;99.90;;;;;;6243889;23;20032;-85
2023/03/24 02:12:02;;;;;;;3.35;2.33;;;12.80;99.90;;;;;;6243474;23;20027;-85
2023/03/24 02:14:50;;;;;;;3.63;2.42;;;12.90;99.90;;;;;;6223759;23;20027;-86
2023/03/24 02:17:57;;;;;;;3.30;2.05;;;13.00;99.90;;;;;;6222249;23;20035;-86
2023/03/24 02:21:00;;;;;;;3.70;2.45;;;12.90;99.90;;;;;;6245688;23;20102;-85
2023/03/24 02:23:56;;;;;;;5.45;2.28;;;12.90;99.90;;;;;;6226959;23;20120;-87
2023/03/24 02:27:03;;;;;;;2.85;2.33;;;12.90;99.90;;;;;;6253396;23;20028;-84
2023/03/24 02:30:15;;;;;;;4.03;2.03;;;12.90;99.90;;;;;;6252196;23;20405;-84
2023/03/24 02:33:36;;;;;;;3.35;2.17;;;12.90;99.90;;;;;;6246670;23;20037;-86
2023/03/24 02:36:56;;;;;;;5.05;2.50;;;12.80;99.90;;;;;;6244133;23;20024;-85
2023/03/24 02:40:14;;;;;;;4.22;2.40;;;12.80;99.90;;;;;;6216581;23;20380;-85
2023/03/24 02:43:16;;;;;;;2.80;2.30;;;12.80;99.90;;;;;;6221091;23;20482;-86
2023/03/24 02:46:12;;;;;;;3.10;2.30;;;12.70;99.90;;;;;;6246573;23;20419;-88
2023/03/24 02:49:18;;;;;;;5.15;2.15;;;12.60;99.90;;;;;;6243364;23;20020;-85
2023/03/24 02:52:45;;;;;;;5.63;2.25;;;12.60;99.90;;;;;;6242413;23;20019;-86
2023/03/24 02:55:43;;;;;;;3.15;2.13;;;12.70;99.90;;;;;;6243173;23;20093;-86
2023/03/24 02:58:58;;;;;;;7.57;2.53;;;12.60;99.90;;;;;;6225684;23;20115;-85
2023/03/24 03:01:59;;;;;;;3.15;2.40;;;12.60;99.90;;;;;;6223990;23;20082;-86
2023/03/24 03:04:53;;;;;;;3.90;2.30;;;12.60;99.90;;;;;;6221350;23;20056;-86
2023/03/24 03:07:45;;;;;;;3.88;2.20;;;12.60;99.90;;;;;;6242398;23;20028;-85
2023/03/24 03:10:39;;;;;;;4.95;2.83;;;12.60;99.90;;;;;;6224985;23;20024;-86
2023/03/24 03:13:34;;;;;;;2.75;2.13;;;12.70;99.90;;;;;;6221493;23;20032;-85
2023/03/24 03:16:37;;;;;;;4.55;2.35;;;12.80;99.90;;;;;;6244975;23;20073;-85
2023/03/24 03:19:49;;;;;;;4.57;2.20;;;12.80;99.90;;;;;;6242635;23;20016;-86
2023/03/24 03:22:48;;;;;;;4.90;2.10;;;12.90;99.90;;;;;;6221695;23;20024;-85
2023/03/24 03:25:50;;;;;;;3.88;2.45;;;13.00;99.90;;;;;;6244671;23;20340;-86
2023/03/24 03:28:42;;;;;;;4.85;2.00;;;13.00;99.90;;;;;;6222022;23;20031;-86
2023/03/24 03:31:43;;;;;;;3.15;2.20;;;13.10;99.90;;;;;;6242901;23;20050;-87
2023/03/24 03:34:44;;;;;;;2.30;2.10;;;13.10;99.90;;;;;;6246328;23;20439;-87
2023/03/24 03:37:49;;;;;;;3.58;2.33;;;13.10;99.90;;;;;;6223285;23;20024;-87
2023/03/24 03:40:46;;;;;;;3.63;2.40;;;13.10;99.90;;;;;;6225309;23;20123;-85
2023/03/24 03:43:35;;;;;;;4.07;2.60;;;13.10;99.90;;;;;;6243597;23;20024;-85
2023/03/24 03:46:22;;;;;;;4.53;2.42;;;13.00;99.90;;;;;;6245392;23;20153;-84
2023/03/24 03:49:12;;;;;;;3.95;2.40;;;13.00;99.90;;;;;;6248373;23;20024;-84
2023/03/24 03:52:00;;;;;;;3.33;2.35;;;13.00;99.90;;;;;;6249737;23;20056;-88
2023/03/24 03:54:48;;;;;;;4.20;2.22;;;13.00;99.90;;;;;;6227346;23;20104;-85
2023/03/24 03:57:38;;;;;;;3.50;2.40;;;13.10;99.90;;;;;;6257344;23;20024;-87
2023/03/24 04:00:29;;;;;;;2.75;2.15;;;13.00;99.90;;;;;;6250667;23;20028;-85
2023/03/24 04:03:45;;;;;;;6.70;2.70;;;13.00;99.90;;;;;;6229783;23;20028;-86
2023/03/24 04:06:49;;;;;;;5.07;2.53;;;13.00;99.90;;;;;;6226140;23;20115;-84
2023/03/24 04:09:55;;;;;;;4.25;3.00;;;13.10;99.90;;;;;;6224569;23;20424;-87
2023/03/24 04:13:21;;;;;;;6.50;3.00;;;12.90;99.90;;;;;;6246330;23;20101;-86
2023/03/24 04:16:30;;;;;;;3.38;2.10;;;12.80;99.90;;;;;;6126344;23;20044;-86
2023/03/24 04:19:36;;;;;;;3.40;2.60;;;12.80;99.90;;;;;;6123641;23;20022;-84
2023/03/24 04:22:55;;;;;;;5.13;2.53;;;12.70;99.90;;;;;;6246764;23;20054;-86
2023/03/24 04:26:09;;;;;;;4.65;2.60;;;12.70;99.90;;;;;;6246266;23;20351;-88
2023/03/24 04:29:08;;;;;;;4.75;2.65;;;12.70;99.90;;;;;;6243672;23;20047;-83
2023/03/24 04:32:01;;;;;;;4.45;2.42;;;12.60;99.90;;;;;;6244130;23;20027;-85
2023/03/24 04:35:00;;;;;;;6.43;2.70;;;12.60;99.90;;;;;;6243550;23;20060;-85
2023/03/24 04:37:51;;;;;;;6.95;2.75;;;12.70;99.90;;;;;;6245333;23;20020;-83
2023/03/24 04:40:44;;;;;;;3.50;2.58;;;12.70;99.90;;;;;;6247396;23;20024;-86
2023/03/24 04:43:35;;;;;;;3.42;2.40;;;12.60;99.90;;;;;;6246067;23;20055;-85
2023/03/24 04:46:23;;;;;;;4.53;2.38;;;12.60;99.90;;;;;;6243914;23;20035;-85
2023/03/24 04:49:12;;;;;;;4.43;2.60;;;12.60;99.90;;;;;;6242316;23;20032;-87
2023/03/24 04:51:59;;;;;;;4.15;2.55;;;12.60;99.90;;;;;;6245520;23;20024;-87
2023/03/24 04:54:47;;;;;;;7.32;3.05;;;12.70;99.90;;;;;;6243431;23;20024;-86
2023/03/24 04:57:34;;;;;;;3.08;2.60;;;12.70;99.90;;;;;;6245183;23;20023;-86
2023/03/24 05:00:43;;;;;;;4.30;2.95;;;12.70;99.90;;;;;;6245474;23;20086;-86
2023/03/24 05:03:54;;;;;;;3.35;3.05;;;12.70;99.90;;;;;;6229145;23;20013;-84
2023/03/24 05:06:41;;;;;;;4.55;3.33;;;12.70;99.90;;;;;;6245969;23;20099;-86
2023/03/24 05:09:32;;;;;;;4.90;3.65;;;12.60;99.90;;;;;;6245910;23;20024;-86
2023/03/24 05:12:49;;;;;;;10.77;3.40;;;12.60;99.90;;;;;;6251072;23;20024;-87
2023/03/24 05:15:40;;;;;;;7.30;3.85;;;12.50;99.90;;;;;;6256566;23;20062;-88
2023/03/24 05:18:27;;;;;;;4.75;3.35;;;12.50;99.90;;;;;;6248436;23;20329;-86
2023/03/24 05:21:19;;;;;;;6.72;3.22;;;12.40;99.90;;;;;;6246305;23;20024;-86
2023/03/24 05:24:13;;;;;;;4.37;2.73;;;12.10;99.90;;;;;;6245760;23;20346;-86
2023/03/24 05:27:01;;;;;;;7.18;3.25;;;12.00;99.90;;;;;;6246891;23;20814;-83
2023/03/24 05:29:49;;;;;;;5.32;3.10;;;11.80;99.90;;;;;;6246222;23;20082;-83
2023/03/24 05:32:37;;;;;;;7.13;3.47;;;11.60;99.90;;;;;;6243515;23;20032;-84
2023/03/24 05:35:27;;;;;;;3.70;2.80;;;11.50;1.00;;;;;;6244727;23;20024;-85
2023/03/24 05:38:15;;;;;;;5.85;3.72;;;11.40;1.00;;;;;;6242860;23;20103;-85
2023/03/24 05:41:02;;;;;;;6.18;3.10;;;11.30;32.30;;;;;;6242537;23;20071;-85
2023/03/24 05:43:49;;;;;;;4.00;3.60;;;11.20;99.90;;;;;;6242683;23;20020;-86
2023/03/24 05:46:40;;;;;;;5.60;3.45;;;11.20;99.90;;;;;;6243351;23;20028;-85
2023/03/24 05:49:27;;;;;;;5.32;3.47;;;11.30;99.90;;;;;;6242506;23;20032;-85
2023/03/24 05:52:16;;;;;;;7.05;3.88;;;11.20;99.90;;;;;;6245053;23;20040;-86
2023/03/24 05:55:04;;;;;;;5.28;3.63;;;11.10;99.90;;;;;;6244465;23;20052;-85
2023/03/24 05:57:54;;;;;;;5.10;3.50;;;11.00;99.90;;;;;;6243665;23;20024;-87
2023/03/24 06:00:44;;;;;;;5.20;3.60;;;10.90;1.00;;;;;;6234955;23;20096;-88
2023/03/24 06:03:37;;;;;;;4.80;3.97;;;10.90;1.00;;;;;;6245390;23;20109;-85
2023/03/24 06:06:34;;;;;;;8.50;4.55;;;10.80;99.90;;;;;;6224085;23;20095;-86
2023/03/24 06:09:25;;;;;;;11.27;5.70;;;10.80;99.90;;;;;;6250300;23;20109;-83
2023/03/24 06:32:59;;;;;;;9.95;4.50;;;10.80;12.60;;;;;;6100826;23;20121;-87
2023/03/24 06:36:00;;;;;;;6.55;4.78;;;10.90;99.90;;;;;;6015474;23;20027;-89
2023/03/24 06:39:15;;;;;;;9.55;4.55;;;10.90;99.90;;;;;;5999313;23;20028;-89
2023/03/24 07:38:23;;;;;;;10.45;7.32;;;10.80;99.90;;;;;;6252904;22;20307;-86
2023/03/24 07:54:52;;;;;;;;;;;;;;;;;;;;;
2023/03/24 08:17:24;;;;;;;15.00;8.45;;;10.90;99.90;;;;;;6249119;22;20024;-87
2023/03/24 08:20:24;;;;;;;13.88;8.23;;;11.00;99.90;;;;;;6225341;23;20082;-89
2023/03/24 08:23:19;;;;;;;12.55;8.15;;;11.00;99.90;;;;;;6247255;23;20034;-88
2023/03/24 08:26:21;;;;;;;12.27;8.23;;;11.00;99.90;;;;;;6154162;23;20452;-88
2023/03/24 08:29:18;;;;;;;12.15;8.52;;;11.00;99.90;;;;;;6155405;23;20022;-84
2023/03/24 08:32:36;;;;;;;14.18;8.55;;;11.00;99.90;;;;;;6155767;23;20417;-84
2023/03/24 08:35:28;;;;;;;10.55;7.47;;;11.00;99.90;;;;;;6134880;23;20782;-88
2023/03/24 08:38:16;;;;;;;10.45;7.20;;;11.00;99.90;;;;;;6154671;23;20057;-87
2023/03/24 08:41:09;;;;;;;10.63;7.85;;;11.00;99.90;;;;;;6154120;23;20560;-83
2023/03/24 08:44:02;;;;;;;8.90;6.55;;;11.00;99.90;;;;;;6154282;23;20114;-84
2023/03/24 08:47:09;;;;;;;7.88;6.13;;;11.10;99.90;;;;;;6152336;23;20136;-85
2023/03/24 08:49:58;;;;;;;9.18;6.25;;;11.10;99.90;;;;;;6154094;23;20080;-85
2023/03/24 08:52:48;;;;;;;7.95;5.07;;;11.20;99.90;;;;;;6153910;23;20036;-86
2023/03/24 08:55:44;;;;;;;7.85;5.10;;;11.30;99.90;;;;;;6155508;23;20088;-86
2023/03/24 08:58:45;;;;;;;5.57;4.73;;;11.30;99.90;;;;;;6155030;23;20030;-86
2023/03/24 09:01:36;;;;;;;6.15;5.25;;;11.40;99.90;;;;;;6153123;23;20049;-85
2023/03/24 09:04:40;;;;;;;6.82;5.40;;;11.40;99.90;;;;;;6218293;23;20020;-88
2023/03/24 09:07:32;;;;;;;9.57;5.60;;;11.50;99.90;;;;;;6226204;23;20082;-86
2023/03/24 09:10:21;;;;;;;8.00;5.28;;;11.50;99.90;;;;;;6245560;23;20028;-84
2023/03/24 09:13:09;;;;;;;5.60;4.68;;;11.50;99.90;;;;;;6244270;23;20113;-88
2023/03/24 09:16:02;;;;;;;7.50;5.15;;;11.60;99.90;;;;;;6246754;23;20036;-85
2023/03/24 09:19:07;;;;;;;7.90;4.85;;;11.70;99.90;;;;;;6243504;23;20403;-86
2023/03/24 09:22:20;;;;;;;6.80;4.63;;;11.70;99.90;;;;;;6244931;23;20043;-85
2023/03/24 09:25:15;;;;;;;7.15;4.72;;;11.80;1.00;;;;;;6244325;23;20020;-85
2023/03/24 09:28:40;;;;;;;7.18;4.70;;;11.90;99.90;;;;;;6225346;23;20094;-86
2023/03/24 09:31:44;;;;;;;6.63;5.10;;;12.10;1.00;;;;;;6227173;23;20322;-88
2023/03/24 09:34:39;;;;;;;6.60;4.82;;;12.20;99.90;;;;;;6243938;23;20035;-86
2023/03/24 09:37:42;;;;;;;9.48;4.65;;;12.40;99.90;;;;;;6223086;23;20027;-86
2023/03/24 09:41:19;;;;;;;7.28;4.97;;;12.70;99.90;;;;;;6245399;23;20039;-86
2023/03/24 09:44:39;;;;;;;6.88;4.90;;;12.80;99.90;;;;;;6109918;23;20161;-87
2023/03/24 09:48:06;;;;;;;5.72;4.40;;;13.00;99.90;;;;;;6122354;23;20032;-84
2023/03/24 09:51:26;;;;;;;5.88;4.07;;;12.90;1.00;;;;;;6104060;23;20041;-85
2023/03/24 09:54:44;;;;;;;4.20;3.80;;;13.40;99.90;;;;;;6104941;23;20037;-87
2023/03/24 09:57:54;;;;;;;5.25;3.85;;;13.80;99.90;;;;;;6108279;23;20022;-86
2023/03/24 10:01:06;;;;;;;5.25;4.05;;;13.90;99.90;;;;;;6104074;23;20026;-87
2023/03/24 10:04:35;;;;;;;4.47;2.97;;;14.30;24.50;;;;;;6105890;23;20069;-86
2023/03/24 10:12:42;;;;;;;;;;;;;;;;;;;;;
2023/03/24 10:16:50;;;;;;;;;;;;;;;;;;;;;
2023/03/24 10:36:53;;;;;;;1.80;1.10;;;14.50;76.80;;;;;;5905362;24;20017;-86
2023/03/24 10:44:00;;;;;;;2.72;1.30;;;14.40;71.20;;;;;;6066124;23;20031;-85
2023/03/24 10:46:56;;;;;;;2.15;1.25;;;14.20;28.60;;;;;;6065508;23;20105;-84
2023/03/24 10:49:54;;;;;;;1.30;1.20;;;14.20;51.70;;;;;;6065146;23;20038;-88
2023/03/24 11:06:31;;;;;;;1.25;1.10;;;14.20;1.00;;;;;;6012009;23;20046;-90
2023/03/24 11:43:02;;;;;;;1.50;0.77;;;14.60;1.00;;;;;;6070616;23;20039;-85
2023/03/24 11:46:26;;;;;;;;;;;;;;;;;;;;;
2023/03/24 11:49:22;;;;;;;0.88;0.88;;;14.20;99.90;;;;;;6082391;23;20336;-86
2023/03/24 11:53:04;;;;;;;1.35;1.02;;;14.20;99.90;;;;;;6069808;23;20051;-85
2023/03/24 11:56:04;;;;;;;1.35;0.80;;;14.20;99.90;;;;;;6070587;23;20129;-85
2023/03/24 11:59:17;;;;;;;;;;;;;;;;;;;;;
2023/03/24 12:07:14;;;;;;;3.80;1.00;;;14.10;99.90;;;;;;6134557;23;20062;-89
2023/03/24 12:10:51;;;;;;;;;;;;;;;;;;;;;
2023/03/24 12:18:07;;;;;;;0.43;0.43;;;14.20;99.90;;;;;;6133503;23;20453;-87
2023/03/24 12:26:00;;;;;;;1.33;0.60;;;14.50;99.90;;;;;;6074951;23;20081;-86
2023/03/24 12:33:12;;;;;;;;;;;;;;;;;;;;;
2023/03/24 12:40:56;;;;;;;0.85;0.75;;;13.70;99.90;;;;;;6133129;23;20488;-84
2023/03/24 12:49:01;;;;;;;0.98;0.75;;;13.70;99.90;;;;;;6139164;23;20026;-86
2023/03/24 12:52:50;;;;;;;0.60;0.60;;;13.80;99.90;;;;;;6248784;23;20024;-87
2023/03/24 12:56:24;;;;;;;0.60;0.60;;;13.60;99.90;;;;;;6235561;23;20024;-88
2023/03/24 13:03:59;;;;;;;0.60;0.60;;;13.90;99.90;;;;;;6153426;23;20222;-87
2023/03/24 13:15:21;;;;;;;4.00;2.90;;;13.80;99.90;;;;;;6094841;23;20018;-87
2023/03/24 13:19:18;;;;;;;;;;;;;;;;;;;;;
2023/03/24 13:26:40;;;;;;;0.85;0.77;;;13.50;99.90;;;;;;5932148;23;20027;-89
2023/03/24 13:29:47;;;;;;;1.80;0.80;;;13.40;99.90;;;;;;6125876;23;20040;-87
2023/03/24 13:32:42;;;;;;;1.50;1.20;;;13.40;99.90;;;;;;6217892;23;20480;-87
2023/03/24 13:35:50;;;;;;;4.55;1.65;;;13.30;99.90;;;;;;6244986;23;20068;-86
2023/03/24 13:39:04;;;;;;;0.80;0.80;;;13.30;99.90;;;;;;6247797;23;20020;-88
2023/03/24 13:42:43;;;;;;;1.42;1.10;;;13.20;99.90;;;;;;6249894;23;20105;-90
2023/03/24 13:45:50;;;;;;;3.08;0.65;;;13.20;99.90;;;;;;6249302;23;20339;-87
2023/03/24 13:48:43;;;;;;;2.70;0.70;;;13.20;99.90;;;;;;6245724;23;20058;-85
2023/03/24 13:51:33;;;;;;;0.80;0.80;;;13.10;99.90;;;;;;6223424;23;20403;-87
2023/03/24 13:54:26;;;;;;;2.22;0.80;;;13.00;99.90;;;;;;6222595;23;20139;-87
2023/03/24 13:57:22;;;;;;;1.35;0.90;;;13.00;99.90;;;;;;6245238;23;20035;-88
2023/03/24 14:00:22;;;;;;;0.77;0.70;;;12.90;99.90;;;;;;6245071;23;20423;-87
2023/03/24 14:03:15;;;;;;;1.10;0.90;;;13.10;99.90;;;;;;6227213;23;20030;-87
2023/03/24 14:06:06;;;;;;;1.17;0.82;;;13.20;99.90;;;;;;6249838;23;20035;-86
2023/03/24 14:09:03;;;;;;;0.80;0.80;;;13.20;99.90;;;;;;6224654;23;20024;-89
2023/03/24 14:11:57;;;;;;;2.13;0.80;;;13.10;99.90;;;;;;6223760;23;20038;-87
2023/03/24 14:15:04;;;;;;;2.80;0.90;;;13.10;99.90;;;;;;6223084;23;20050;-89
2023/03/24 14:18:13;;;;;;;2.00;0.80;;;13.00;99.90;;;;;;6224479;23;20028;-88
2023/03/24 14:21:01;;;;;;;1.23;0.80;;;13.20;99.90;;;;;;6225916;23;20154;-87
2023/03/24 14:23:51;;;;;;;2.65;0.77;;;13.30;99.90;;;;;;6247252;23;20386;-87
2023/03/24 14:26:39;;;;;;;2.28;0.80;;;13.40;99.90;;;;;;6223964;23;20103;-88
2023/03/24 14:29:51;;;;;;;1.10;0.73;;;13.60;99.90;;;;;;6244747;23;20028;-88
2023/03/24 14:32:46;;;;;;;0.80;0.80;;;13.30;99.90;;;;;;6245825;23;20028;-87
2023/03/24 14:35:45;;;;;;;1.75;0.77;;;13.10;99.90;;;;;;6244852;23;20086;-85
2023/03/24 14:38:36;;;;;;;0.57;0.57;;;13.40;99.90;;;;;;6245730;23;20416;-87
2023/03/24 14:41:33;;;;;;;2.28;0.80;;;13.40;99.90;;;;;;6243981;23;20158;-87
2023/03/24 14:44:54;;;;;;;2.50;0.88;;;12.80;99.90;;;;;;6244198;23;20024;-86
2023/03/24 14:47:42;;;;;;;0.82;0.60;;;12.50;1.00;;;;;;6223052;23;20159;-88
2023/03/24 14:50:33;;;;;;;0.65;0.65;;;12.40;1.00;;;;;;6245990;23;20028;-88
2023/03/24 14:53:23;;;;;;;0.77;0.73;;;12.50;1.00;;;;;;6244053;23;20024;-87
2023/03/24 14:56:15;;;;;;;2.30;1.98;;;12.50;1.00;;;;;;6243502;23;20028;-87
2023/03/24 14:59:10;;;;;;;3.10;0.98;;;12.40;1.00;;;;;;6245230;23;20050;-85
2023/03/24 15:02:17;;;;;;;1.05;0.80;;;12.30;1.00;;;;;;6244780;23;20028;-89
2023/03/24 15:05:17;;;;;;;2.42;1.48;;;12.10;1.00;;;;;;6243754;23;20024;-88
2023/03/24 15:08:26;;;;;;;0.80;0.80;;;12.00;1.00;;;;;;6226606;23;20032;-87
2023/03/24 15:11:41;;;;;;;16.05;7.65;;;12.00;1.00;;;;;;6244837;23;20439;-89
2023/03/24 15:14:29;;;;;;;1.85;1.02;;;12.10;1.00;;;;;;6226811;22;20032;-89
2023/03/24 15:17:25;;;;;;;1.20;0.80;;;12.20;1.00;;;;;;6245111;23;20056;-89
2023/03/24 15:20:22;;;;;;;2.60;0.90;;;12.20;1.00;;;;;;6243003;23;20024;-89
2023/03/24 15:23:17;;;;;;;2.80;0.93;;;12.20;1.00;;;;;;6224310;23;20095;-89
2023/03/24 15:26:15;;;;;;;1.52;1.00;;;12.20;1.00;;;;;;6244392;23;20028;-89
2023/03/24 15:29:06;;;;;;;1.95;1.13;;;12.20;1.00;;;;;;6225286;23;20093;-86
2023/03/24 15:31:54;;;;;;;1.20;1.10;;;12.30;1.00;;;;;;6245812;23;20431;-90
2023/03/24 15:34:57;;;;;;;2.35;1.02;;;12.10;1.00;;;;;;6245029;23;20400;-89
2023/03/24 15:37:56;;;;;;;1.80;1.48;;;11.90;22.90;;;;;;6245081;23;20162;-90
2023/03/24 15:41:06;;;;;;;1.63;1.30;;;11.70;92.10;;;;;;6244901;23;20108;-88
2023/03/24 15:43:53;;;;;;;3.63;1.60;;;11.60;99.90;;;;;;6246078;23;20040;-86
2023/03/24 15:46:59;;;;;;;1.98;1.27;;;11.40;99.90;;;;;;6243347;23;20059;-91
2023/03/24 15:50:02;;;;;;;3.17;1.65;;;11.20;99.90;;;;;;6243840;23;20130;-84
2023/03/24 15:53:29;;;;;;;2.47;1.80;;;11.00;1.00;;;;;;6222449;23;20435;-84
2023/03/24 15:56:19;;;;;;;2.53;1.73;;;10.70;1.00;;;;;;6179476;23;20024;-83
2023/03/24 15:59:10;;;;;;;3.47;1.90;;;10.50;1.00;;;;;;6224475;23;20407;-83
2023/03/24 16:02:03;;;;;;;2.53;1.52;;;10.40;1.00;;;;;;6224664;23;20075;-83
2023/03/24 16:04:57;;;;;;;1.85;1.73;;;10.40;99.90;;;;;;6223879;23;20091;-83
2023/03/24 16:08:03;;;;;;;3.03;1.70;;;10.40;90.80;;;;;;6243028;23;20301;-84
2023/03/24 16:11:00;;;;;;;2.33;1.50;;;10.40;99.90;;;;;;6243671;23;20032;-84
2023/03/24 16:13:50;;;;;;;3.10;1.60;;;10.40;99.90;;;;;;6244095;23;20427;-83
2023/03/24 16:16:43;;;;;;;1.77;1.52;;;10.40;99.90;;;;;;6244671;23;20099;-83
2023/03/24 16:19:31;;;;;;;2.30;2.10;;;10.40;99.90;;;;;;6243334;23;20311;-83
2023/03/24 16:22:24;;;;;;;1.60;1.50;;;10.40;99.90;;;;;;6245350;23;20419;-83
2023/03/24 16:25:15;;;;;;;2.13;1.90;;;10.50;18.50;;;;;;6224825;23;20027;-86
2023/03/24 16:28:20;;;;;;;3.53;1.73;;;11.30;99.90;;;;;;6250830;23;20043;-83
2023/03/24 16:31:16;;;;;;;;;;;12.00;12.70;;;;;;6256680;23;20028;-86
2023/03/24 16:34:06;;;;;;;1.92;1.73;;;11.70;99.90;;;;;;6254689;23;19934;-82
2023/03/24 16:37:09;;;;;;;3.80;3.20;;;11.30;99.90;;;;;;6250248;23;20316;-84
2023/03/24 16:40:10;;;;;;;2.92;1.55;;;11.30;99.90;;;;;;6246630;23;20024;-82
2023/03/24 16:43:01;;;;;;;1.77;1.67;;;11.30;99.90;;;;;;6245600;23;20027;-84
2023/03/24 16:45:52;;;;;;;1.40;1.30;;;11.30;99.90;;;;;;6227336;23;20025;-84
2023/03/24 16:48:40;;;;;;;3.15;1.55;;;11.20;99.90;;;;;;6245838;23;20113;-87
2023/03/24 16:51:30;;;;;;;1.60;1.48;;;11.20;1.00;;;;;;6228983;23;20085;-84
2023/03/24 16:54:29;;;;;;;2.65;1.60;;;11.20;1.00;;;;;;6249348;23;20024;-85
2023/03/24 16:57:25;;;;;;;2.10;1.67;;;11.10;1.00;;;;;;6222851;23;20025;-85
2023/03/24 17:00:13;;;;;;;1.45;1.33;;;11.00;1.00;;;;;;6245720;23;20024;-85
2023/03/24 17:03:05;;;;;;;1.77;1.60;;;10.90;1.00;;;;;;6246313;23;20035;-83
2023/03/24 17:05:56;;;;;;;3.90;1.45;;;10.90;99.90;;;;;;6243608;23;20146;-82
2023/03/24 17:08:49;;;;;;;2.55;1.85;;;10.80;99.90;;;;;;6246445;23;20028;-82
2023/03/24 17:11:59;;;;;;;3.20;1.83;;;10.90;99.90;;;;;;6245722;23;20024;-84
2023/03/24 17:14:56;;;;;;;1.80;1.65;;;10.80;99.90;;;;;;6245133;23;20035;-83
2023/03/24 17:17:43;;;;;;;3.53;1.75;;;10.70;99.90;;;;;;6245347;23;20031;-85
2023/03/24 17:20:31;;;;;;;3.60;1.92;;;10.70;99.90;;;;;;6245365;23;20020;-83
2023/03/24 17:23:18;;;;;;;3.42;1.60;;;10.70;99.90;;;;;;6259065;23;20043;-84
2023/03/24 17:26:05;;;;;;;2.95;1.83;;;10.60;99.90;;;;;;6244544;23;20121;-83
2023/03/24 17:28:56;;;;;;;2.67;1.60;;;10.60;99.90;;;;;;6243722;23;20107;-84
2023/03/24 17:31:45;;;;;;;2.25;1.45;;;10.60;99.90;;;;;;6243815;23;20054;-84
2023/03/24 17:34:32;;;;;;;1.90;1.77;;;10.50;99.90;;;;;;6245537;23;20038;-84
2023/03/24 17:37:20;;;;;;;1.95;1.70;;;10.50;99.90;;;;;;6244365;23;20085;-81
2023/03/24 17:40:10;;;;;;;2.20;1.40;;;10.50;99.90;;;;;;6242159;23;20051;-83
2023/03/24 17:42:57;;;;;;;2.55;2.00;;;10.40;99.90;;;;;;6244422;23;20445;-84
2023/03/24 17:45:45;;;;;;;2.40;1.90;;;10.30;99.90;;;;;;6243751;23;20032;-82
2023/03/24 17:48:33;;;;;;;2.30;1.67;;;10.20;99.90;;;;;;6244181;23;20130;-82
2023/03/24 17:51:20;;;;;;;2.30;1.95;;;10.20;99.90;;;;;;6245967;23;20042;-83
2023/03/24 17:54:10;;;;;;;1.95;1.70;;;10.10;99.90;;;;;;6243183;23;20024;-83
2023/03/24 17:56:57;;;;;;;4.18;1.98;;;10.10;99.90;;;;;;6242991;23;20414;-83
2023/03/24 17:59:51;;;;;;;2.42;2.00;;;10.10;99.90;;;;;;6242349;23;20028;-85
2023/03/24 18:02:42;;;;;;;5.22;2.70;;;10.00;99.90;;;;;;6224846;23;20024;-81
2023/03/24 18:05:29;;;;;;;3.20;1.75;;;9.90;99.90;;;;;;6243850;23;20036;-81
2023/03/24 18:08:21;;;;;;;2.50;2.08;;;9.90;99.90;;;;;;6244511;23;20445;-82
2023/03/24 18:11:11;;;;;;;9.20;3.42;;;9.80;99.90;;;;;;6255815;23;20039;-83
2023/03/24 18:14:01;;;;;;;3.17;2.28;;;9.80;99.90;;;;;;6222490;23;20024;-82
2023/03/24 18:16:49;;;;;;;2.63;1.90;;;9.80;99.90;;;;;;6243867;23;20095;-84
2023/03/24 18:19:37;;;;;;;2.72;2.03;;;9.80;99.90;;;;;;6243394;23;20024;-82
2023/03/24 18:22:24;;;;;;;3.33;1.80;;;9.80;99.90;;;;;;6243934;23;20147;-83
2023/03/24 18:25:12;;;;;;;3.10;1.95;;;9.70;99.90;;;;;;6243548;23;20026;-82
2023/03/24 18:27:59;;;;;;;2.80;2.20;;;9.70;99.90;;;;;;6243892;23;20024;-81
2023/03/24 18:30:46;;;;;;;3.83;2.10;;;9.70;99.90;;;;;;6244269;23;20027;-81
2023/03/24 18:33:34;;;;;;;2.72;2.00;;;9.70;99.90;;;;;;6245084;23;20035;-84
2023/03/24 18:36:25;;;;;;;2.60;1.73;;;9.80;99.90;;;;;;6245042;23;20103;-84
2023/03/24 18:39:14;;;;;;;2.45;1.90;;;9.80;99.90;;;;;;6243846;23;20063;-83
2023/03/24 18:42:02;;;;;;;2.95;2.00;;;9.80;99.90;;;;;;6223175;23;20371;-83
2023/03/24 18:44:51;;;;;;;4.25;2.47;;;9.70;99.90;;;;;;6244514;23;20024;-83
2023/03/24 18:47:38;;;;;;;2.33;2.10;;;9.70;99.90;;;;;;6242251;23;20031;-85
2023/03/24 18:50:25;;;;;;;5.03;2.50;;;9.60;99.90;;;;;;6242722;23;20040;-84
2023/03/24 18:53:13;;;;;;;3.40;2.38;;;9.60;99.90;;;;;;6243866;23;20028;-83
2023/03/24 18:56:01;;;;;;;5.90;3.30;;;9.60;99.90;;;;;;6243967;23;20479;-83
2023/03/24 18:58:48;;;;;;;6.13;3.58;;;9.60;99.90;;;;;;6257528;23;20020;-84
2023/03/24 19:01:37;;;;;;;5.40;2.60;;;9.50;99.90;;;;;;6248607;23;20034;-83
2023/03/24 19:04:25;;;;;;;4.55;2.60;;;9.50;99.90;;;;;;6250457;22;20058;-84
2023/03/24 19:07:13;;;;;;;3.50;2.53;;;9.50;99.90;;;;;;6242466;23;20020;-82
2023/03/24 19:10:00;;;;;;;3.03;2.72;;;9.50;99.90;;;;;;6245622;23;20032;-82
2023/03/24 19:12:50;;;;;;;4.38;2.65;;;9.40;99.90;;;;;;6224549;23;20035;-81
2023/03/24 19:15:38;;;;;;;6.28;3.22;;;9.40;99.90;;;;;;6242906;23;20039;-82
2023/03/24 19:18:32;;;;;;;7.97;4.50;;;9.30;99.90;;;;;;6243730;23;20078;-82
2023/03/24 19:21:21;;;;;;;3.97;2.58;;;9.20;99.90;;;;;;6243108;23;20028;-82
2023/03/24 19:24:09;;;;;;;4.25;2.38;;;9.20;99.90;;;;;;6243520;23;20363;-82